• Join FlightAware (Why Join?)
  • Login
  • US Flag 
03:55AM EDT


 

Airport Tracker/Info


-or-


 

Live Flight TrackerFlight Track Log ✈ EJA951 ✈ 07-Nov-2013 ✈ KSLC - KPHL

Flight Track Log - Related Links

Times and Time Zones

All times are in EST time to prevent confusion due to time zone crossing. See the EJA951 flight status page for this flight to view local times or setup timezone preferences in your user account.

Time Position Orientation Groundspeed Altitude Reporting Facility
EST Latitude Longitude Course Direction KTS MPH feet Rate Location/Type
02:17PM 40.7631 -111.9658 255° West 190 219 5,300  Level Salt Lake Center
02:19PM 40.7494 -112.0333 255° West 222 255 7,900 2,280 Climbing Salt Lake Center
02:19PM 40.7489 -112.0472 267° West 230 265 8,100 3,360 Climbing Salt Lake Center
02:20PM 40.8025 -112.0819 334° Northwest 248 285 11,400 2,820 Climbing Salt Lake Center
02:21PM 40.8506 -111.9911 55° Northeast 327 376 13,900 2,460 Climbing Salt Lake Center
02:22PM 40.8972 -111.8753 62° Northeast 375 432 16,600 1,800 Climbing Salt Lake Center
02:23PM 40.9300 -111.7414 72° East 396 456 17,700 1,140 Climbing Salt Lake Center
02:24PM 40.9753 -111.5678 71° East 424 488 19,000 1,440 Climbing Salt Lake Center
02:25PM 41.0136 -111.4142 72° East 441 507 20,700 1,500 Climbing Salt Lake Center
02:26PM 41.0525 -111.2586 72° East 446 513 22,200 1,500 Climbing Salt Lake Center
02:27PM 41.0928 -111.0967 72° East 462 532 23,800 1,560 Climbing Salt Lake Center
02:28PM 41.1364 -110.9219 72° East 475 547 25,500 1,620 Climbing Salt Lake Center
02:29PM 41.1825 -110.7300 72° East 488 562 27,200 1,500 Climbing Salt Lake Center
02:30PM 41.2244 -110.5619 72° East 501 577 28,700 1,620 Climbing Salt Lake Center
02:31PM 41.2736 -110.3606 72° East 512 589 30,600 1,800 Climbing Salt Lake Center
02:32PM 41.3150 -110.1861 72° East 517 595 32,500 2,340 Climbing Salt Lake Center
02:33PM 41.3633 -109.9856 72° East 511 588 35,500 1,980 Climbing Salt Lake Center
02:34PM 41.4036 -109.8175 72° East 502 578 36,700 1,260 Climbing Salt Lake Center
02:35PM 41.4444 -109.6447 72° East 508 585 38,200 1,200 Climbing Salt Lake Center
02:36PM 41.4919 -109.4428 73° East 509 586 39,300 900 Climbing Salt Lake Center
02:37PM 41.5347 -109.2631 72° East 522 601 40,100 780 Climbing Salt Lake Center
02:38PM 41.5828 -109.0472 73° East 529 609 41,000 420 Climbing Salt Lake Center
02:39PM 41.6097 -108.8558 79° East 542 624 41,000  Level Salt Lake Center
02:40PM 41.6342 -108.6578 81° East 558 642 41,000  Level Salt Lake Center
02:41PM 41.6611 -108.4239 81° East 568 654 41,000  Level Salt Lake Center
02:42PM 41.6833 -108.2214 82° East 573 659 41,000  Level Salt Lake Center
02:43PM 41.7111 -107.9883 81° East 571 657 41,000  Level Salt Lake Center
02:44PM 41.7258 -107.8525 82° East 571 657 41,000  Level Denver Center
02:45PM 41.7514 -107.6158 82° East 575 662 41,000  Level Denver Center
02:46PM 41.7664 -107.4106 84° East 580 667 41,000  Level Denver Center
02:47PM 41.7803 -107.1686 86° East 583 671 41,100  Climbing Denver Center
02:48PM 41.7936 -106.9628 85° East 580 667 41,000 -60 Descending Denver Center
02:49PM 41.8067 -106.7231 86° East 580 667 41,000  Level Denver Center
02:50PM 41.8186 -106.5194 85° East 576 663 41,000  Level Denver Center
02:51PM 41.8283 -106.3178 86° East 571 657 41,000  Level Denver Center
02:52PM 41.8431 -106.0828 85° East 568 654 41,100  Climbing Denver Center
02:53PM 41.8589 -105.8800 84° East 571 657 41,000 -60 Descending Denver Center
02:54PM 41.8883 -105.6461 80° East 572 658 41,000  Level Denver Center
02:55PM 41.9111 -105.4467 81° East 569 655 41,000  Level Denver Center
02:57PM 41.9356 -105.2097 82° East 573 659 41,000  Level Denver Center
02:58PM 41.9583 -105.0103 81° East 570 656 41,100  Climbing Denver Center
02:59PM 41.9828 -104.7781 82° East 567 652 41,000 -60 Descending Denver Center
03:00PM 42.0047 -104.5744 82° East 574 661 41,000  Level Denver Center
03:01PM 42.0281 -104.3397 82° East 572 658 41,000  Level Denver Center
03:02PM 42.0494 -104.1375 82° East 575 662 41,000  Level Denver Center
03:03PM 42.0728 -103.9000 82° East 577 664 41,000  Level Denver Center
03:04PM 42.0933 -103.6967 82° East 576 663 41,000  Level Denver Center
03:05PM 42.1164 -103.4581 82° East 578 665 41,000  Level Denver Center
03:06PM 42.1356 -103.2533 83° East 577 664 41,000  Level Denver Center
03:07PM 42.1575 -103.0136 83° East 579 666 41,000  Level Denver Center
03:08PM 42.1767 -102.8075 83° East 581 669 41,000  Level Denver Center
03:09PM 42.1972 -102.5672 83° East 581 669 41,000  Level Denver Center
03:10PM 42.2153 -102.3622 83° East 577 664 41,000  Level Denver Center
03:11PM 42.2350 -102.1292 83° East 580 667 41,000  Level Denver Center
03:12PM 42.2525 -101.9219 83° East 580 667 41,000  Level Denver Center
03:13PM 42.2714 -101.6811 84° East 577 664 41,000  Level Denver Center
03:14PM 42.2875 -101.4753 84° East 575 662 41,000  Level Denver Center
03:15PM 42.3069 -101.2314 84° East 582 670 41,000  Level Denver Center
03:16PM 42.3219 -101.0244 84° East 579 666 41,000  Level Denver Center
03:17PM 42.3375 -100.8147 84° East 583 671 41,000  Level Denver Center
03:18PM 42.3533 -100.5731 85° East 579 666 41,000  Level Denver Center
03:19PM 42.3683 -100.3636 84° East 583 671 41,000  Level Denver Center
03:20PM 42.3856 -100.1222 84° East 579 666 41,000  Level Denver Center
03:21PM 42.3972 -99.9128 86° East 581 669 41,000  Level Denver Center
03:22PM 42.4131 -99.6694 85° East 581 669 41,000  Level Denver Center
03:23PM 42.4242 -99.5003 85° East 582 670 41,000  Level Minneapolis Center
03:24PM 42.4361 -99.2800 86° East 584 672 41,000  Level Minneapolis Center
03:25PM 42.4494 -99.0567 85° East 590 679 41,000  Level Minneapolis Center
03:26PM 42.4614 -98.8344 86° East 590 679 41,000  Level Minneapolis Center
03:27PM 42.4742 -98.6153 85° East 586 674 41,000  Level Minneapolis Center
03:28PM 42.4842 -98.3931 86° East 587 676 41,000  Level Minneapolis Center
03:29PM 42.4944 -98.1744 86° East 584 672 41,000  Level Minneapolis Center
03:30PM 42.5072 -97.9100 86° East 585 673 41,000  Level Minneapolis Center
03:31PM 42.5167 -97.7081 86° East 588 677 41,000  Level Minneapolis Center
03:32PM 42.5256 -97.4839 87° East 592 681 41,000  Level Minneapolis Center
03:33PM 42.5344 -97.2592 87° East 596 686 41,000  Level Minneapolis Center
03:34PM 42.5439 -96.9914 87° East 594 684 41,000  Level Minneapolis Center
03:36PM 42.5525 -96.7647 87° East 596 686 41,000  Level Minneapolis Center
03:37PM 42.5600 -96.5431 87° East 593 682 41,000  Level Minneapolis Center
03:38PM 42.5669 -96.3181 88° East 594 684 41,000  Level Minneapolis Center
03:39PM 42.5733 -96.0975 88° East 587 676 41,000  Level Minneapolis Center
03:40PM 42.5797 -95.8731 88° East 590 679 41,000  Level Minneapolis Center
03:41PM 42.5858 -95.6503 88° East 591 680 41,000  Level Minneapolis Center
03:42PM 42.5917 -95.3800 88° East 594 684 41,000  Level Minneapolis Center
03:43PM 42.5958 -95.1578 88° East 589 678 41,000  Level Minneapolis Center
03:44PM 42.6006 -94.9353 88° East 589 678 41,000  Level Minneapolis Center
03:45PM 42.6044 -94.7125 89° East 589 678 41,000  Level Minneapolis Center
03:46PM 42.6078 -94.4881 89° East 591 680 41,000  Level Minneapolis Center
03:47PM 42.6092 -94.2667 89° East 594 684 41,000  Level Minneapolis Center
03:48PM 42.5994 -94.0478 93° East 589 678 41,000  Level Minneapolis Center
03:49PM 42.5883 -93.7858 93° East 586 674 41,000  Level Minneapolis Center
03:50PM 42.5775 -93.5669 94° East 587 676 41,000  Level Minneapolis Center
03:51PM 42.5664 -93.3478 94° East 587 676 41,000  Level Minneapolis Center
03:52PM 42.5550 -93.1297 94° East 587 676 41,000  Level Minneapolis Center
03:53PM 42.5433 -92.9097 94° East 585 673 41,000  Level Chicago Center
03:54PM 42.5297 -92.6911 95° East 584 672 41,000  Level Chicago Center
03:55PM 42.5136 -92.4300 95° East 587 676 41,000  Level Chicago Center
03:56PM 42.5017 -92.2108 94° East 589 678 41,000  Level Chicago Center
03:57PM 42.4892 -91.9950 94° East 584 672 41,000  Level Chicago Center
03:58PM 42.4767 -91.7758 94° East 594 684 41,000  Level Chicago Center
03:59PM 42.4583 -91.5211 95° East 582 670 41,000  Level Chicago Center
04:00PM 42.4442 -91.3069 95° East 584 672 41,000  Level Chicago Center
04:01PM 42.4281 -91.0911 96° East 586 674 41,000  Level Chicago Center
04:02PM 42.4136 -90.8736 95° East 587 676 41,000  Level Chicago Center
04:03PM 42.3950 -90.6122 95° East 589 678 41,000  Level Chicago Center
04:04PM 42.3836 -90.3931 94° East 590 679 41,000  Level Chicago Center
04:05PM 42.3719 -90.1736 94° East 590 679 41,000  Level Chicago Center
04:07PM 42.3586 -89.9544 95° East 591 680 41,000  Level Chicago Center
04:08PM 42.3447 -89.7156 94° East 591 680 41,000  Level Chicago Center
04:09PM 42.3311 -89.4944 95° East 592 681 41,000  Level Chicago Center
04:10PM 42.3164 -89.2731 95° East 594 684 41,000  Level Chicago Center
04:11PM 42.2994 -89.0119 95° East 588 677 41,000  Level Chicago Center
04:12PM 42.2856 -88.8139 95° East 589 678 41,000  Level Chicago Center
04:13PM 42.2708 -88.5956 95° East 587 676 41,000  Level Chicago Center
04:14PM 42.2522 -88.3314 95° East 588 677 41,000  Level Chicago Center
04:15PM 42.2372 -88.1142 95° East 584 672 41,000  Level Chicago Center
04:16PM 42.2203 -87.8975 96° East 580 667 41,000  Level Chicago Center
04:17PM 42.2039 -87.6786 96° East 584 672 41,000  Level Chicago Center
04:18PM 42.1869 -87.4614 96° East 583 671 41,000  Level Chicago Center
04:19PM 42.1708 -87.2439 96° East 583 671 41,000  Level Chicago Center
04:20PM 42.1469 -86.9789 97° East 593 682 41,000  Level Chicago Center
04:21PM 42.1294 -86.7617 96° East 587 676 41,000  Level Chicago Center
04:22PM 42.1147 -86.5611 96° East 590 679 41,000  Level Chicago Center
04:23PM 42.0867 -86.3453 100° East 587 676 41,000  Level Chicago Center
04:24PM 42.0350 -86.0944 105° East 581 669 41,000  Level Chicago Center
04:25PM 41.9925 -85.8822 105° East 586 674 41,000  Level Chicago Center
04:26PM 41.9483 -85.6689 105° East 589 678 41,000  Level Chicago Center
04:27PM 41.9047 -85.4531 105° East 592 681 41,000  Level Chicago Center
04:28PM 41.8592 -85.2358 106° East 595 685 41,000  Level Chicago Center
04:29PM 41.8136 -85.0172 106° East 593 682 41,000  Level Chicago Center
04:30PM 41.7694 -84.8022 105° East 601 692 41,000  Level Chicago Center
04:31PM 41.7242 -84.5917 106° East 593 682 41,000  Level Chicago Center
04:32PM 41.6883 -84.4222 106° East 591 680 41,000  Level Cleveland Center
04:33PM 41.6381 -84.1972 107° East 590 679 41,000  Level Cleveland Center
04:34PM 41.5933 -83.9892 106° East 588 677 41,000  Level Cleveland Center
04:35PM 41.5369 -83.7403 107° East 588 677 41,000  Level Cleveland Center
04:36PM 41.4908 -83.5342 107° East 586 674 41,000  Level Cleveland Center
04:37PM 41.4442 -83.3275 107° East 588 677 41,000  Level Cleveland Center
04:38PM 41.3925 -83.1014 107° East 585 673 41,000  Level Cleveland Center
04:39PM 41.3444 -82.8939 107° East 583 671 41,000  Level Cleveland Center
04:40PM 41.2958 -82.6867 107° East 583 671 41,000  Level Cleveland Center
04:41PM 41.2472 -82.4783 107° East 587 676 41,000  Level Cleveland Center
04:42PM 41.1986 -82.2717 107° East 585 673 41,000  Level Cleveland Center
04:44PM 41.1425 -82.0403 108° East 582 670 41,000  Level Cleveland Center
04:45PM 41.0919 -81.8292 108° East 583 671 41,000  Level Cleveland Center
04:46PM 41.0431 -81.6278 108° East 581 669 41,000  Level Cleveland Center
04:47PM 40.9922 -81.4256 108° East 580 667 41,100  Climbing Cleveland Center
04:48PM 40.9411 -81.2228 108° East 581 669 41,000 -60 Descending Cleveland Center
04:49PM 40.8819 -80.9844 108° East 583 671 41,000  Level Cleveland Center
04:50PM 40.8314 -80.7808 108° East 584 672 41,000  Level Cleveland Center
04:51PM 40.7783 -80.5761 109° East 585 673 41,000  Level Cleveland Center
04:52PM 40.7272 -80.3717 108° East 585 673 41,000  Level Cleveland Center
04:53PM 40.6725 -80.1650 109° East 584 672 41,000  Level Cleveland Center
04:54PM 40.6183 -79.9658 110° East 582 670 41,000 -240 Level Cleveland Center
04:55PM 40.5686 -79.7594 108° East 583 671 40,600 -960 Descending Cleveland Center
04:56PM 40.5364 -79.5417 101° East 603 694 39,100 -1,260 Descending Cleveland Center
04:57PM 40.5019 -79.2944 100° East 600 690 38,000 -720 Descending Cleveland Center
04:58PM 40.4747 -79.0836 100° East 593 682 37,700 -1,020 Descending Cleveland Center
04:59PM 40.4492 -78.8725 99° East 594 684 35,900 -2,400 Descending Cleveland Center
05:00PM 40.4317 -78.6158 95° East 597 687 32,800 -2,700 Descending Cleveland Center
05:01PM 40.4158 -78.4056 96° East 589 678 30,300 -2,400 Descending Cleveland Center
05:02PM 40.4006 -78.2075 96° East 558 642 27,900 -2,280 Descending Cleveland Center
05:03PM 40.3842 -78.0189 96° East 534 615 25,600 -1,800 Descending Cleveland Center
05:04PM 40.3650 -77.8031 97° East 509 586 24,300 -1,380 Descending Cleveland Center
05:05PM 40.3378 -77.6225 101° East 509 586 22,800 -1,680 Descending Cleveland Center
05:06PM 40.3100 -77.4506 102° East 496 571 20,900 -1,860 Descending Cleveland Center
05:07PM 40.2839 -77.2808 101° East 485 558 19,000 -1,440 Descending Cleveland Center
05:08PM 40.2586 -77.1303 102° East 458 527 18,000 -540 Descending Cleveland Center
05:09PM 40.2292 -76.9450 102° East 440 506 18,000  Level Cleveland Center
05:10PM 40.2028 -76.7861 102° East 445 512 18,000 -300 Level Cleveland Center
05:11PM 40.1764 -76.6253 102° East 451 519 17,400 -1,440 Descending Cleveland Center
05:12PM 40.1467 -76.4736 104° East 428 493 15,100 -2,520 Descending New York Center
05:13PM 40.1242 -76.3306 102° East 408 470 12,500 -2,400 Descending New York Center
05:14PM 40.1156 -76.2022 95° East 398 458 10,400 -1,380 Descending New York Center
05:15PM 40.1067 -76.0767 95° East 379 436 9,800 -1,200 Descending New York Center
05:16PM 40.0994 -75.9594 95° East 344 396 8,000 -960 Descending New York Center
05:17PM 40.0858 -75.8392 98° East 318 366 8,000 -780 Level New York Center
05:18PM 40.0797 -75.7381 94° East 310 357 6,500 -960 Descending New York Center
05:19PM 40.0761 -75.6239 92° East 295 339 6,100 -240 Descending New York Center
05:20PM 40.0736 -75.5317 92° East 290 334 6,100  Level New York Center
05:21PM 40.0722 -75.4119 91° East 290 334 6,100  Level New York Center
05:22PM 40.0667 -75.3333 95° East 270 311 6,100 -60 Level Philadelphia TRACON
05:23PM 40.0167 -75.2667 134° Southeast 228 262 6,000  Descending Philadelphia TRACON
05:24PM 39.9667 -75.2000 134° Southeast 237 273 6,100 -180 Climbing Philadelphia TRACON
05:25PM 39.9833 -75.1167 75° East 208 239 5,700 -600 Descending Philadelphia TRACON
05:26PM 40.0000 -75.0500 72° East 199 229 5,000 -1,020 Descending Philadelphia TRACON
05:27PM 40.0167 -74.9833 72° East 196 226 3,600 -1,440 Descending Philadelphia TRACON
05:28PM 39.9833 -74.9333 131° Southeast 201 231 2,100 -900 Descending Philadelphia TRACON
05:29PM 39.9500 -74.9667 217° Southwest 175 201 2,000  Descending Philadelphia TRACON
05:30PM 39.9333 -75.0167 247° West 153 176 2,100  Climbing Philadelphia TRACON
05:31PM 39.9167 -75.0667 247° West 127 146 2,000 -120 Descending Philadelphia TRACON
05:32PM 39.9167 -75.1000 270° West 121 139 1,900 -360 Descending Philadelphia TRACON
05:33PM 39.9000 -75.1333 237° Southwest 116 133 1,400 -720 Descending Philadelphia TRACON
05:34PM 39.8833 -75.1833 247° West 126 145 700 -780 Descending Philadelphia TRACON